createdAt,value
2023-04-24T00:01:53.203Z,2.35
2023-04-24T00:04:19.815Z,2.75
2023-04-24T00:06:50.351Z,3.22
2023-04-24T00:09:16.884Z,3.83
2023-04-24T00:11:43.330Z,3.78
2023-04-24T00:14:09.744Z,2.28
2023-04-24T00:16:36.335Z,2.45
2023-04-24T00:19:02.990Z,1.70
2023-04-24T00:21:29.407Z,2.17
2023-04-24T00:23:55.851Z,2.00
2023-04-24T00:26:22.260Z,2.33
2023-04-24T00:28:48.780Z,2.78
2023-04-24T00:31:15.284Z,3.33
2023-04-24T00:33:42.117Z,1.98
2023-04-24T00:36:08.889Z,2.42
2023-04-24T00:38:35.384Z,2.45
2023-04-24T00:41:01.902Z,2.70
2023-04-24T00:43:28.527Z,2.88
2023-04-24T00:45:55.781Z,2.22
2023-04-24T00:48:22.349Z,2.00
2023-04-24T00:50:48.772Z,2.15
2023-04-24T00:53:15.241Z,2.85
2023-04-24T00:55:41.890Z,2.03
2023-04-24T00:58:08.607Z,1.70
2023-04-24T01:00:36.032Z,2.13
2023-04-24T01:03:05.570Z,2.08
2023-04-24T01:05:33.682Z,1.73
2023-04-24T01:08:00.354Z,2.55
2023-04-24T01:10:28.283Z,2.25
2023-04-24T01:12:54.845Z,2.40
2023-04-24T01:15:21.413Z,4.63
2023-04-24T01:17:47.885Z,3.85
2023-04-24T01:20:14.805Z,12.10
2023-04-24T01:22:42.255Z,4.65
2023-04-24T01:25:08.997Z,4.18
2023-04-24T01:27:35.494Z,6.75
2023-04-24T01:30:02.335Z,5.90
2023-04-24T01:32:30.473Z,6.28
2023-04-24T01:34:56.969Z,6.95
2023-04-24T01:37:23.456Z,6.82
2023-04-24T01:39:49.943Z,7.63
2023-04-24T01:42:17.159Z,7.38
2023-04-24T01:44:43.654Z,7.60
2023-04-24T01:47:10.093Z,7.20
2023-04-24T01:49:37.562Z,6.80
2023-04-24T01:52:05.682Z,6.78
2023-04-24T01:54:32.112Z,7.63
2023-04-24T01:56:58.625Z,8.00
2023-04-24T01:59:26.252Z,9.00
2023-04-24T02:01:52.772Z,7.78
2023-04-24T02:04:19.502Z,11.20
2023-04-24T02:06:47.117Z,10.13
2023-04-24T02:09:13.528Z,11.60
2023-04-24T02:11:39.919Z,11.00
2023-04-24T02:14:06.386Z,10.82
2023-04-24T02:16:33.909Z,9.95
2023-04-24T02:19:00.442Z,11.73
2023-04-24T02:21:28.362Z,10.10
2023-04-24T02:23:54.995Z,9.57
2023-04-24T02:26:21.607Z,11.18
2023-04-24T02:28:48.087Z,11.07
2023-04-24T02:31:14.586Z,11.27
2023-04-24T02:33:41.238Z,11.02
2023-04-24T02:36:07.775Z,9.77
2023-04-24T02:38:34.181Z,11.50
2023-04-24T02:41:01.686Z,11.07
2023-04-24T02:43:28.120Z,11.27
2023-04-24T02:45:54.653Z,9.82
2023-04-24T02:48:21.881Z,12.45
2023-04-24T02:50:48.681Z,11.32
2023-04-24T02:53:15.134Z,13.75
2023-04-24T02:55:41.565Z,11.82
2023-04-24T02:58:08.053Z,12.50
2023-04-24T03:00:34.494Z,11.63
2023-04-24T03:03:01.432Z,11.90
2023-04-24T03:05:28.340Z,12.93
2023-04-24T03:07:54.832Z,15.02
2023-04-24T03:10:23.496Z,11.80
2023-04-24T03:12:49.993Z,11.40
2023-04-24T03:15:18.676Z,11.80
2023-04-24T03:17:45.172Z,12.13
2023-04-24T03:20:11.754Z,13.90
2023-04-24T03:22:38.240Z,13.10
2023-04-24T03:25:09.166Z,12.50
2023-04-24T03:27:35.890Z,11.88
2023-04-24T03:30:07.820Z,11.63
2023-04-24T03:32:43.145Z,11.82
2023-04-24T03:35:13.796Z,13.45
2023-04-24T03:37:40.613Z,11.52
2023-04-24T03:40:27.367Z,11.40
2023-04-24T03:42:54.083Z,13.05
2023-04-24T03:45:20.901Z,12.52
2023-04-24T03:47:49.861Z,13.48
2023-04-24T03:50:16.578Z,11.70
2023-04-24T03:52:43.872Z,11.32
2023-04-24T03:55:14.386Z,11.65
2023-04-24T03:57:45.180Z,12.30
2023-04-24T04:00:20.475Z,14.95
2023-04-24T04:02:53.061Z,12.10
2023-04-24T04:05:19.739Z,16.35
2023-04-24T04:07:46.287Z,12.43
2023-04-24T04:10:12.912Z,12.90
2023-04-24T04:12:39.396Z,13.60
2023-04-24T04:15:07.789Z,14.55
2023-04-24T04:17:34.466Z,11.18
2023-04-24T04:20:02.534Z,12.30
2023-04-24T04:22:29.369Z,11.88
2023-04-24T04:24:55.970Z,12.35
2023-04-24T04:27:24.052Z,10.77
2023-04-24T04:30:04.139Z,11.43
2023-04-24T04:32:35.408Z,11.63
2023-04-24T04:35:06.065Z,11.23
2023-04-24T04:37:34.327Z,13.20
2023-04-24T04:40:23.602Z,11.93
2023-04-24T04:42:56.847Z,13.18
2023-04-24T04:45:25.418Z,11.45
2023-04-24T04:48:19.605Z,12.38
2023-04-24T04:50:46.487Z,14.38
2023-04-24T04:53:13.195Z,10.05
2023-04-24T04:55:39.812Z,11.63
2023-04-24T04:58:15.272Z,10.88
2023-04-24T05:00:42.492Z,11.18
2023-04-24T05:03:32.056Z,13.43
2023-04-24T05:06:06.350Z,12.23
2023-04-24T05:08:35.873Z,10.00
2023-04-24T05:11:04.071Z,11.60
2023-04-24T05:13:40.272Z,10.07
2023-04-24T05:16:22.526Z,9.98
2023-04-24T05:18:51.033Z,9.13
2023-04-24T05:21:21.797Z,9.70
2023-04-24T05:23:51.236Z,10.02
2023-04-24T05:26:26.632Z,11.07
2023-04-24T05:28:53.375Z,11.32
2023-04-24T05:31:19.961Z,11.63
2023-04-24T05:33:46.498Z,12.45
2023-04-24T05:36:13.256Z,15.05
2023-04-24T05:38:39.741Z,14.65
2023-04-24T05:41:06.305Z,14.73
2023-04-24T05:43:32.698Z,14.95
2023-04-24T05:46:00.079Z,18.13
2023-04-24T05:48:26.973Z,16.33
2023-04-24T05:50:53.667Z,16.30
2023-04-24T05:53:20.130Z,16.92
2023-04-24T05:55:46.601Z,16.95
2023-04-24T05:58:13.345Z,18.58
2023-04-24T06:00:43.392Z,17.60
2023-04-24T06:03:10.125Z,14.18
2023-04-24T06:05:36.829Z,16.30
2023-04-24T06:08:03.596Z,13.73
2023-04-24T06:10:34.287Z,15.40
2023-04-24T06:13:01.577Z,13.93
2023-04-24T06:15:31.397Z,12.55
2023-04-24T06:18:01.798Z,11.02
2023-04-24T06:20:28.523Z,12.32
2023-04-24T06:22:55.174Z,11.13
2023-04-24T06:25:21.677Z,10.50
2023-04-24T06:27:48.179Z,13.43
2023-04-24T06:30:14.950Z,13.55
2023-04-24T06:32:41.577Z,12.38
2023-04-24T06:35:09.152Z,11.77
2023-04-24T06:37:35.669Z,10.95
2023-04-24T06:40:02.121Z,11.88
2023-04-24T06:42:28.570Z,12.60
2023-04-24T06:44:55.945Z,11.15
2023-04-24T06:47:22.641Z,13.75
2023-04-24T06:49:49.266Z,11.63
2023-04-24T06:52:15.708Z,17.38
2023-04-24T06:54:42.587Z,13.95
2023-04-24T06:57:09.356Z,12.77
2023-04-24T06:59:36.086Z,14.02
2023-04-24T07:02:02.596Z,13.25
2023-04-24T07:04:29.556Z,12.60
2023-04-24T07:06:58.946Z,12.63
2023-04-24T07:09:26.404Z,12.25
2023-04-24T07:11:53.792Z,12.75
2023-04-24T07:14:20.598Z,12.35
2023-04-24T07:16:47.132Z,10.77
2023-04-24T07:19:14.123Z,6.57
2023-04-24T07:21:40.693Z,8.65
2023-04-24T07:24:10.374Z,8.65
2023-04-24T07:26:36.979Z,7.43
2023-04-24T07:29:03.403Z,6.45
2023-04-24T07:31:30.149Z,6.18
2023-04-24T07:33:58.883Z,4.20
2023-04-24T07:36:26.921Z,4.88
2023-04-24T07:38:53.908Z,2.60
2023-04-24T07:41:21.520Z,3.30
2023-04-24T07:43:48.085Z,2.97
2023-04-24T07:46:14.626Z,0.98
2023-04-24T07:48:41.131Z,1.38
2023-04-24T07:51:07.593Z,3.65
2023-04-24T07:53:34.096Z,4.07
2023-04-24T07:56:00.568Z,4.07
2023-04-24T07:58:27.033Z,2.03
2023-04-24T08:00:53.530Z,2.22
2023-04-24T08:03:21.099Z,2.08
2023-04-24T08:05:47.835Z,0.90
2023-04-24T08:08:14.378Z,1.42
2023-04-24T08:10:40.917Z,1.73
2023-04-24T08:13:07.416Z,1.20
2023-04-24T08:15:34.046Z,1.70
2023-04-24T08:18:00.827Z,1.90
2023-04-24T08:20:27.449Z,2.80
2023-04-24T08:22:55.096Z,6.18
2023-04-24T08:25:21.760Z,7.65
2023-04-24T08:27:48.267Z,9.15
2023-04-24T08:30:14.881Z,10.13
2023-04-24T08:32:41.442Z,10.75
2023-04-24T08:35:10.209Z,12.48
2023-04-24T08:37:36.959Z,14.63
2023-04-24T08:40:06.747Z,16.52
2023-04-24T08:42:35.258Z,11.57
2023-04-24T08:45:03.331Z,9.73
2023-04-24T08:47:30.138Z,9.63
2023-04-24T08:49:57.008Z,13.27
2023-04-24T08:52:23.810Z,26.25
2023-04-24T08:54:50.337Z,16.70
2023-04-24T08:57:17.509Z,17.50
2023-04-24T08:59:44.358Z,13.95
2023-04-24T09:02:11.690Z,12.38
2023-04-24T09:04:38.949Z,15.23
2023-04-24T09:07:07.119Z,14.38
2023-04-24T09:09:33.879Z,10.13
2023-04-24T09:12:01.254Z,11.35
2023-04-24T09:14:28.980Z,10.15
2023-04-24T09:16:55.615Z,16.13
2023-04-24T09:19:23.409Z,15.05
2023-04-24T09:21:50.024Z,13.32
2023-04-24T09:24:21.748Z,14.77
2023-04-24T09:26:48.190Z,15.77
2023-04-24T09:29:17.843Z,24.25
2023-04-24T09:31:45.224Z,20.63
2023-04-24T09:34:11.978Z,27.25
2023-04-24T09:36:39.511Z,21.85
2023-04-24T09:39:09.141Z,19.52
2023-04-24T09:41:35.868Z,10.48
2023-04-24T09:44:18.463Z,13.65
2023-04-24T09:46:46.541Z,22.92
2023-04-24T09:49:17.197Z,17.10
2023-04-24T09:51:44.179Z,23.05
2023-04-24T09:54:17.331Z,24.75
2023-04-24T09:56:45.247Z,29.10
2023-04-24T09:59:11.758Z,26.70
2023-04-24T10:01:41.560Z,40.22
2023-04-24T10:04:15.677Z,39.28
2023-04-24T10:06:43.264Z,32.75
2023-04-24T10:09:11.953Z,44.28
2023-04-24T10:11:38.672Z,44.25
2023-04-24T10:14:05.833Z,27.52
2023-04-24T10:16:32.551Z,46.95
2023-04-24T10:19:00.437Z,28.23
2023-04-24T10:21:27.559Z,31.67
2023-04-24T10:23:54.656Z,31.20
2023-04-24T10:26:21.302Z,52.85
2023-04-24T10:28:48.245Z,39.92
2023-04-24T10:31:15.136Z,49.38
2023-04-24T10:33:43.134Z,25.70
2023-04-24T10:36:13.164Z,26.80
2023-04-24T10:38:41.868Z,39.00
2023-04-24T10:41:10.257Z,25.95
2023-04-24T10:43:36.905Z,30.15
2023-04-24T10:46:07.252Z,19.23
2023-04-24T10:48:34.172Z,22.33
2023-04-24T10:51:00.754Z,25.42
2023-04-24T10:53:30.507Z,14.48
2023-04-24T10:56:03.181Z,14.73
2023-04-24T10:58:47.222Z,20.23
2023-04-24T11:01:27.482Z,24.73
2023-04-24T11:04:01.549Z,16.00
2023-04-24T11:06:36.847Z,9.88
2023-04-24T11:09:06.329Z,14.93
2023-04-24T11:11:33.384Z,16.25
2023-04-24T11:13:59.837Z,13.98
2023-04-24T11:16:36.420Z,20.65
2023-04-24T11:19:17.335Z,13.13
2023-04-24T11:21:45.450Z,16.35
2023-04-24T11:24:24.230Z,17.75
2023-04-24T11:26:52.076Z,15.02
2023-04-24T11:29:22.272Z,12.57
2023-04-24T11:31:51.029Z,14.85
2023-04-24T11:34:18.008Z,11.15
2023-04-24T11:36:45.277Z,13.98
2023-04-24T11:39:12.195Z,16.15
2023-04-24T11:41:38.835Z,12.50
2023-04-24T11:44:07.555Z,11.38
2023-04-24T11:46:34.136Z,11.65
2023-04-24T11:49:01.297Z,13.98
2023-04-24T11:51:31.147Z,11.80
2023-04-24T11:54:04.241Z,10.93
2023-04-24T11:56:31.301Z,14.38
2023-04-24T11:58:57.801Z,10.77
2023-04-24T12:01:24.312Z,12.27
2023-04-24T12:03:52.372Z,10.73
2023-04-24T12:06:20.170Z,9.73
2023-04-24T12:08:47.439Z,13.13
2023-04-24T12:11:15.757Z,15.43
2023-04-24T12:13:42.241Z,10.85
2023-04-24T12:16:08.781Z,9.13
2023-04-24T12:18:35.436Z,7.60
2023-04-24T12:21:23.090Z,6.70
2023-04-24T12:23:49.956Z,11.18
2023-04-24T12:26:20.231Z,7.82
2023-04-24T12:28:50.685Z,5.93
2023-04-24T12:31:17.572Z,8.20
2023-04-24T12:33:44.360Z,6.05
2023-04-24T12:36:13.161Z,8.23
2023-04-24T12:38:42.570Z,5.82
2023-04-24T12:41:10.364Z,5.90
2023-04-24T12:43:37.155Z,8.27
2023-04-24T12:46:04.271Z,6.70
2023-04-24T12:48:31.427Z,4.53
2023-04-24T12:50:58.418Z,6.15
2023-04-24T12:53:27.572Z,6.10
2023-04-24T12:55:54.121Z,5.25
2023-04-24T12:58:21.352Z,2.95
2023-04-24T13:00:48.364Z,4.25
2023-04-24T13:03:15.091Z,4.50
2023-04-24T13:05:43.226Z,3.38
2023-04-24T13:08:09.690Z,3.88
2023-04-24T13:10:36.263Z,3.47
2023-04-24T13:13:02.721Z,4.53
2023-04-24T13:15:29.238Z,3.78
2023-04-24T13:17:56.348Z,3.20
2023-04-24T13:20:22.906Z,3.08
2023-04-24T13:22:49.377Z,3.58
2023-04-24T13:25:18.002Z,3.22
2023-04-24T13:27:44.625Z,4.65
2023-04-24T13:30:11.586Z,3.40
2023-04-24T13:32:38.228Z,3.83
2023-04-24T13:35:05.124Z,4.88
2023-04-24T13:37:31.706Z,3.53
2023-04-24T13:39:58.164Z,4.05
2023-04-24T13:42:24.621Z,5.10
2023-04-24T13:44:52.171Z,3.88
2023-04-24T13:47:18.826Z,3.10
2023-04-24T13:49:45.328Z,3.72
2023-04-24T13:52:11.884Z,2.72
2023-04-24T13:54:38.434Z,5.82
2023-04-24T13:57:05.034Z,3.70
2023-04-24T13:59:31.778Z,4.85
2023-04-24T14:01:58.350Z,5.82
2023-04-24T14:04:25.498Z,5.28
2023-04-24T14:06:52.373Z,5.65
2023-04-24T14:09:18.849Z,3.90
2023-04-24T14:11:45.415Z,4.38
2023-04-24T14:14:12.485Z,5.22
2023-04-24T14:16:39.007Z,4.88
2023-04-24T14:19:06.463Z,3.38
2023-04-24T14:21:33.396Z,4.80
2023-04-24T14:23:59.862Z,6.28
2023-04-24T14:26:26.557Z,4.00
2023-04-24T14:28:57.977Z,4.95
2023-04-24T14:31:30.753Z,4.63
2023-04-24T14:33:58.482Z,6.15
2023-04-24T14:36:24.943Z,2.92
2023-04-24T14:38:51.462Z,3.10
2023-04-24T14:41:17.897Z,6.72
2023-04-24T14:43:44.680Z,2.55
2023-04-24T14:46:11.444Z,4.50
2023-04-24T14:48:37.956Z,3.45
2023-04-24T14:51:04.806Z,4.93
2023-04-24T14:53:31.661Z,2.90
2023-04-24T14:55:58.216Z,5.65
2023-04-24T14:58:24.722Z,2.72
2023-04-24T15:00:52.944Z,3.17
2023-04-24T15:03:19.922Z,4.63
2023-04-24T15:05:46.848Z,3.22
2023-04-24T15:08:13.408Z,2.50
2023-04-24T15:10:39.884Z,2.35
2023-04-24T15:13:06.456Z,2.60
2023-04-24T15:15:32.981Z,4.05
2023-04-24T15:17:59.521Z,2.63
2023-04-24T15:20:26.096Z,2.50
2023-04-24T15:22:52.551Z,2.70
2023-04-24T15:25:19.175Z,2.78
2023-04-24T15:27:46.537Z,3.40
2023-04-24T15:30:13.667Z,3.25
2023-04-24T15:32:40.206Z,3.50
2023-04-24T15:35:09.140Z,3.25
2023-04-24T15:37:36.572Z,3.15
2023-04-24T15:40:05.517Z,2.60
2023-04-24T15:42:32.106Z,2.05
2023-04-24T15:44:58.680Z,3.30
2023-04-24T15:47:25.620Z,3.75
2023-04-24T15:49:52.603Z,4.00
2023-04-24T15:52:19.137Z,5.65
2023-04-24T15:54:45.585Z,5.50
2023-04-24T15:57:13.421Z,3.97
2023-04-24T15:59:40.360Z,3.22
2023-04-24T16:02:08.607Z,2.72
2023-04-24T16:04:35.577Z,4.13
2023-04-24T16:07:02.361Z,3.53
2023-04-24T16:09:29.066Z,2.20
2023-04-24T16:11:55.605Z,2.38
2023-04-24T16:14:22.124Z,3.00
2023-04-24T16:16:48.644Z,2.95
2023-04-24T16:19:16.011Z,3.67
2023-04-24T16:21:42.583Z,2.50
2023-04-24T16:24:09.072Z,7.97
2023-04-24T16:26:35.526Z,2.65
2023-04-24T16:29:01.969Z,2.72
2023-04-24T16:31:28.560Z,4.28
2023-04-24T16:33:55.057Z,3.10
2023-04-24T16:36:21.978Z,4.60
2023-04-24T16:38:49.679Z,4.00
2023-04-24T16:41:16.667Z,4.72
2023-04-24T16:43:43.151Z,2.92
2023-04-24T16:46:09.727Z,2.28
2023-04-24T16:48:36.212Z,2.00
2023-04-24T16:51:02.691Z,2.28
2023-04-24T16:53:29.095Z,2.75
2023-04-24T16:55:55.585Z,3.35
2023-04-24T16:58:22.023Z,3.25
2023-04-24T17:00:48.725Z,3.95
2023-04-24T17:03:15.526Z,3.15
2023-04-24T17:05:42.109Z,4.53
2023-04-24T17:08:08.699Z,4.10
2023-04-24T17:10:35.237Z,6.78
2023-04-24T17:13:01.751Z,3.13
2023-04-24T17:15:28.269Z,3.85
2023-04-24T17:17:54.753Z,5.50
2023-04-24T17:20:23.307Z,4.80
2023-04-24T17:22:50.788Z,4.32
2023-04-24T17:25:17.438Z,4.85
2023-04-24T17:27:44.410Z,3.80
2023-04-24T17:30:11.502Z,3.25
2023-04-24T17:32:38.036Z,4.78
2023-04-24T17:35:04.832Z,4.50
2023-04-24T17:37:31.665Z,2.35
2023-04-24T17:39:58.169Z,2.40
2023-04-24T17:42:24.690Z,5.55
2023-04-24T17:44:51.230Z,3.28
2023-04-24T17:47:18.159Z,2.72
2023-04-24T17:49:44.604Z,2.67
2023-04-24T17:52:11.825Z,6.85
2023-04-24T17:54:38.324Z,4.15
2023-04-24T17:57:04.785Z,3.60
2023-04-24T17:59:31.295Z,5.65
2023-04-24T18:01:58.414Z,5.28
2023-04-24T18:04:26.119Z,4.13
2023-04-24T18:06:52.736Z,3.28
2023-04-24T18:09:20.894Z,4.20
2023-04-24T18:11:49.195Z,3.35
2023-04-24T18:14:16.204Z,2.58
2023-04-24T18:16:42.646Z,2.40
2023-04-24T18:19:09.122Z,4.90
2023-04-24T18:21:35.581Z,4.38
2023-04-24T18:24:02.066Z,4.10
2023-04-24T18:26:28.594Z,3.40
2023-04-24T18:28:55.106Z,3.30
2023-04-24T18:31:21.628Z,4.55
2023-04-24T18:33:48.302Z,2.85
2023-04-24T18:36:14.758Z,2.72
2023-04-24T18:38:41.213Z,4.80
2023-04-24T18:41:07.685Z,4.25
2023-04-24T18:43:34.201Z,2.65
2023-04-24T18:46:00.684Z,5.03
2023-04-24T18:48:29.789Z,4.28
2023-04-24T18:50:56.264Z,3.88
2023-04-24T18:53:22.739Z,6.32
2023-04-24T18:55:49.173Z,4.63
2023-04-24T18:58:15.661Z,4.75
2023-04-24T19:00:42.211Z,5.50
2023-04-24T19:03:09.275Z,4.20
2023-04-24T19:05:35.955Z,3.75
2023-04-24T19:08:02.416Z,3.45
2023-04-24T19:10:29.117Z,3.60
2023-04-24T19:12:56.900Z,4.18
2023-04-24T19:15:24.121Z,6.70
2023-04-24T19:17:51.688Z,4.43
2023-04-24T19:20:18.953Z,5.22
2023-04-24T19:22:46.019Z,4.43
2023-04-24T19:25:12.444Z,5.10
2023-04-24T19:27:39.161Z,4.97
2023-04-24T19:30:06.245Z,4.20
2023-04-24T19:32:32.789Z,5.10
2023-04-24T19:34:59.349Z,5.57
2023-04-24T19:37:25.896Z,5.80
2023-04-24T19:39:52.388Z,7.78
2023-04-24T19:42:25.553Z,5.75
2023-04-24T19:44:58.740Z,7.05
2023-04-24T19:47:25.732Z,6.93
2023-04-24T19:49:52.232Z,5.95
2023-04-24T19:52:19.549Z,6.35
2023-04-24T19:54:46.061Z,4.88
2023-04-24T19:57:12.552Z,7.30
2023-04-24T19:59:39.045Z,8.25
2023-04-24T20:02:05.526Z,7.32
2023-04-24T20:04:32.215Z,7.88
2023-04-24T20:06:58.812Z,8.00
2023-04-24T20:09:25.344Z,7.95
2023-04-24T20:11:53.544Z,8.00
2023-04-24T20:14:20.773Z,8.30
2023-04-24T20:16:47.273Z,10.27
2023-04-24T20:19:13.961Z,11.55
2023-04-24T20:21:40.466Z,12.50
2023-04-24T20:24:08.781Z,7.22
2023-04-24T20:26:36.352Z,7.05
2023-04-24T20:29:03.885Z,9.23
2023-04-24T20:31:30.463Z,9.23
2023-04-24T20:33:57.041Z,9.70
2023-04-24T20:36:24.368Z,7.13
2023-04-24T20:38:51.764Z,6.65
2023-04-24T20:41:19.455Z,8.48
2023-04-24T20:43:46.313Z,6.63
2023-04-24T20:46:12.792Z,6.93
2023-04-24T20:48:39.339Z,6.32
2023-04-24T20:51:06.248Z,9.17
2023-04-24T20:53:32.720Z,8.55
2023-04-24T20:55:59.215Z,8.15
2023-04-24T20:58:25.760Z,6.97
2023-04-24T21:00:52.283Z,7.45
2023-04-24T21:03:19.053Z,8.55
2023-04-24T21:05:45.823Z,8.65
2023-04-24T21:08:12.472Z,8.30
2023-04-24T21:10:38.959Z,9.68
2023-04-24T21:13:05.372Z,10.20
2023-04-24T21:15:31.898Z,7.65
2023-04-24T21:17:58.385Z,7.63
2023-04-24T21:20:25.209Z,9.55
2023-04-24T21:22:51.724Z,12.82
2023-04-24T21:25:18.167Z,9.95
2023-04-24T21:27:44.633Z,8.55
2023-04-24T21:30:11.505Z,15.20
2023-04-24T21:32:40.370Z,12.15
2023-04-24T21:35:07.126Z,14.07
2023-04-24T21:37:35.418Z,7.57
2023-04-24T21:40:04.685Z,10.93
2023-04-24T21:42:31.608Z,11.65
2023-04-24T21:44:58.177Z,11.80
2023-04-24T21:47:24.659Z,8.35
2023-04-24T21:49:51.107Z,10.90
2023-04-24T21:52:17.552Z,10.60
2023-04-24T21:54:43.982Z,11.48
2023-04-24T21:57:10.615Z,11.38
2023-04-24T21:59:37.042Z,11.85
2023-04-24T22:02:03.634Z,12.98
2023-04-24T22:04:30.399Z,14.05
2023-04-24T22:06:57.087Z,10.67
2023-04-24T22:09:23.615Z,9.37
2023-04-24T22:11:50.902Z,12.63
2023-04-24T22:14:17.407Z,12.30
2023-04-24T22:16:44.073Z,13.43
2023-04-24T22:19:10.715Z,10.68
2023-04-24T22:21:37.185Z,12.17
2023-04-24T22:24:03.758Z,12.27
2023-04-24T22:26:30.246Z,14.95
2023-04-24T22:28:56.831Z,11.77
2023-04-24T22:31:23.406Z,11.80
2023-04-24T22:33:50.429Z,11.67
2023-04-24T22:36:17.101Z,13.82
2023-04-24T22:38:43.565Z,13.33
2023-04-24T22:41:10.041Z,12.87
2023-04-24T22:43:36.647Z,12.85
2023-04-24T22:46:03.202Z,14.75
2023-04-24T22:48:29.688Z,12.40
2023-04-24T22:50:56.235Z,14.10
2023-04-24T22:53:23.233Z,15.13
2023-04-24T22:55:49.740Z,15.03
2023-04-24T22:58:16.267Z,13.43
2023-04-24T23:00:43.634Z,12.50
2023-04-24T23:03:10.237Z,15.40
2023-04-24T23:05:36.781Z,18.40
2023-04-24T23:08:03.289Z,13.63
2023-04-24T23:10:29.905Z,11.17
2023-04-24T23:12:56.474Z,15.37
2023-04-24T23:15:22.929Z,17.00
2023-04-24T23:17:49.556Z,13.90
2023-04-24T23:20:16.571Z,15.07
2023-04-24T23:22:43.088Z,13.88
2023-04-24T23:25:10.779Z,14.40
2023-04-24T23:27:37.482Z,16.45
2023-04-24T23:30:04.838Z,11.85
2023-04-24T23:32:31.308Z,14.47
2023-04-24T23:34:57.821Z,13.70
2023-04-24T23:37:24.296Z,14.50
2023-04-24T23:39:51.047Z,14.13
2023-04-24T23:42:17.613Z,13.20
2023-04-24T23:44:44.075Z,15.07
2023-04-24T23:47:10.510Z,18.10
2023-04-24T23:49:37.715Z,17.40
2023-04-24T23:52:04.390Z,12.73
2023-04-24T23:54:30.865Z,13.10
2023-04-24T23:56:57.359Z,13.80
2023-04-24T23:59:23.861Z,17.23
